sensor_id;sensor_type;location;lat;lon;timestamp;P1;durP1;ratioP1;P2;durP2;ratioP2
20159;SDS011;50187;50.492;12.134;2022-11-20T00:02:10;10.10;;;8.67;;
20159;SDS011;50187;50.492;12.134;2022-11-20T00:04:55;10.67;;;8.47;;
20159;SDS011;50187;50.492;12.134;2022-11-20T00:07:40;9.03;;;8.13;;
20159;SDS011;50187;50.492;12.134;2022-11-20T00:10:26;9.37;;;8.50;;
20159;SDS011;50187;50.492;12.134;2022-11-20T00:13:11;9.27;;;8.40;;
20159;SDS011;50187;50.492;12.134;2022-11-20T00:15:57;9.03;;;8.13;;
20159;SDS011;50187;50.492;12.134;2022-11-20T00:18:43;9.47;;;7.87;;
20159;SDS011;50187;50.492;12.134;2022-11-20T00:21:29;8.93;;;8.13;;
20159;SDS011;50187;50.492;12.134;2022-11-20T00:24:15;9.43;;;8.50;;
20159;SDS011;50187;50.492;12.134;2022-11-20T00:27:00;8.60;;;7.80;;
20159;SDS011;50187;50.492;12.134;2022-11-20T00:29:45;9.60;;;8.70;;
20159;SDS011;50187;50.492;12.134;2022-11-20T00:32:31;9.70;;;8.30;;
20159;SDS011;50187;50.492;12.134;2022-11-20T00:35:16;8.83;;;8.03;;
20159;SDS011;50187;50.492;12.134;2022-11-20T00:38:01;9.53;;;8.53;;
20159;SDS011;50187;50.492;12.134;2022-11-20T00:40:46;9.73;;;8.83;;
20159;SDS011;50187;50.492;12.134;2022-11-20T00:43:38;9.53;;;8.70;;
20159;SDS011;50187;50.492;12.134;2022-11-20T00:46:24;8.67;;;7.73;;
20159;SDS011;50187;50.492;12.134;2022-11-20T00:49:11;9.33;;;8.43;;
20159;SDS011;50187;50.492;12.134;2022-11-20T00:51:57;9.17;;;8.37;;
20159;SDS011;50187;50.492;12.134;2022-11-20T00:54:41;8.43;;;7.63;;
20159;SDS011;50187;50.492;12.134;2022-11-20T00:57:27;8.80;;;7.90;;
20159;SDS011;50187;50.492;12.134;2022-11-20T01:00:12;8.73;;;7.90;;
20159;SDS011;50187;50.492;12.134;2022-11-20T01:02:57;9.03;;;8.13;;
20159;SDS011;50187;50.492;12.134;2022-11-20T01:05:43;8.10;;;7.33;;
20159;SDS011;50187;50.492;12.134;2022-11-20T01:08:29;7.80;;;7.10;;
20159;SDS011;50187;50.492;12.134;2022-11-20T01:11:20;8.10;;;7.30;;
20159;SDS011;50187;50.492;12.134;2022-11-20T01:14:08;8.57;;;7.77;;
20159;SDS011;50187;50.492;12.134;2022-11-20T01:16:55;8.20;;;7.50;;
20159;SDS011;50187;50.492;12.134;2022-11-20T01:19:40;8.87;;;7.97;;
20159;SDS011;50187;50.492;12.134;2022-11-20T01:22:25;10.03;;;7.83;;
20159;SDS011;50187;50.492;12.134;2022-11-20T01:25:11;8.40;;;7.60;;
20159;SDS011;50187;50.492;12.134;2022-11-20T01:27:56;8.87;;;7.97;;
20159;SDS011;50187;50.492;12.134;2022-11-20T01:30:41;8.50;;;7.63;;
20159;SDS011;50187;50.492;12.134;2022-11-20T01:33:26;8.77;;;7.97;;
20159;SDS011;50187;50.492;12.134;2022-11-20T01:36:13;8.67;;;7.17;;
20159;SDS011;50187;50.492;12.134;2022-11-20T01:38:59;7.93;;;7.20;;
20159;SDS011;50187;50.492;12.134;2022-11-20T01:41:46;8.20;;;7.50;;
20159;SDS011;50187;50.492;12.134;2022-11-20T01:44:58;8.17;;;7.47;;
20159;SDS011;50187;50.492;12.134;2022-11-20T01:47:45;7.97;;;7.27;;
20159;SDS011;50187;50.492;12.134;2022-11-20T01:50:31;8.77;;;7.43;;
20159;SDS011;50187;50.492;12.134;2022-11-20T01:53:18;8.23;;;7.53;;
20159;SDS011;50187;50.492;12.134;2022-11-20T01:56:09;8.30;;;7.60;;
20159;SDS011;50187;50.492;12.134;2022-11-20T01:58:58;7.97;;;7.27;;
20159;SDS011;50187;50.492;12.134;2022-11-20T02:01:46;8.53;;;7.83;;
20159;SDS011;50187;50.492;12.134;2022-11-20T02:04:31;7.90;;;7.20;;
20159;SDS011;50187;50.492;12.134;2022-11-20T02:07:16;7.73;;;7.03;;
20159;SDS011;50187;50.492;12.134;2022-11-20T02:10:03;8.07;;;7.37;;
20159;SDS011;50187;50.492;12.134;2022-11-20T02:12:48;7.10;;;6.50;;
20159;SDS011;50187;50.492;12.134;2022-11-20T02:15:52;7.53;;;6.93;;
20159;SDS011;50187;50.492;12.134;2022-11-20T02:18:38;7.70;;;7.00;;
20159;SDS011;50187;50.492;12.134;2022-11-20T02:21:33;8.20;;;7.27;;
20159;SDS011;50187;50.492;12.134;2022-11-20T02:24:29;7.27;;;6.57;;
20159;SDS011;50187;50.492;12.134;2022-11-20T02:27:15;7.77;;;7.00;;
20159;SDS011;50187;50.492;12.134;2022-11-20T02:30:03;7.30;;;6.63;;
20159;SDS011;50187;50.492;12.134;2022-11-20T02:32:52;7.53;;;6.93;;
20159;SDS011;50187;50.492;12.134;2022-11-20T02:35:41;7.30;;;6.60;;
20159;SDS011;50187;50.492;12.134;2022-11-20T02:38:31;7.23;;;6.60;;
20159;SDS011;50187;50.492;12.134;2022-11-20T02:41:16;7.47;;;6.77;;
20159;SDS011;50187;50.492;12.134;2022-11-20T02:44:02;7.07;;;6.47;;
20159;SDS011;50187;50.492;12.134;2022-11-20T02:46:49;7.93;;;7.13;;
20159;SDS011;50187;50.492;12.134;2022-11-20T02:49:34;7.33;;;6.63;;
20159;SDS011;50187;50.492;12.134;2022-11-20T02:52:19;6.67;;;6.07;;
20159;SDS011;50187;50.492;12.134;2022-11-20T02:55:04;7.73;;;7.03;;
20159;SDS011;50187;50.492;12.134;2022-11-20T02:57:50;6.93;;;6.23;;
20159;SDS011;50187;50.492;12.134;2022-11-20T03:00:35;7.00;;;6.37;;
20159;SDS011;50187;50.492;12.134;2022-11-20T03:03:20;7.40;;;6.80;;
20159;SDS011;50187;50.492;12.134;2022-11-20T03:06:05;7.03;;;6.50;;
20159;SDS011;50187;50.492;12.134;2022-11-20T03:08:51;6.97;;;6.27;;
20159;SDS011;50187;50.492;12.134;2022-11-20T03:11:36;7.07;;;6.47;;
20159;SDS011;50187;50.492;12.134;2022-11-20T03:14:21;7.00;;;6.40;;
20159;SDS011;50187;50.492;12.134;2022-11-20T03:17:06;6.83;;;6.33;;
20159;SDS011;50187;50.492;12.134;2022-11-20T03:19:51;7.27;;;6.63;;
20159;SDS011;50187;50.492;12.134;2022-11-20T03:22:36;7.00;;;6.40;;
20159;SDS011;50187;50.492;12.134;2022-11-20T03:25:22;7.33;;;6.73;;
20159;SDS011;50187;50.492;12.134;2022-11-20T03:28:07;6.80;;;6.20;;
20159;SDS011;50187;50.492;12.134;2022-11-20T03:30:52;6.57;;;6.03;;
20159;SDS011;50187;50.492;12.134;2022-11-20T03:33:38;6.77;;;6.17;;
20159;SDS011;50187;50.492;12.134;2022-11-20T03:36:24;6.93;;;6.33;;
20159;SDS011;50187;50.492;12.134;2022-11-20T03:39:10;6.87;;;6.33;;
20159;SDS011;50187;50.492;12.134;2022-11-20T03:41:55;6.67;;;6.07;;
20159;SDS011;50187;50.492;12.134;2022-11-20T03:44:40;6.30;;;5.80;;
20159;SDS011;50187;50.492;12.134;2022-11-20T03:47:25;6.00;;;5.57;;
20159;SDS011;50187;50.492;12.134;2022-11-20T03:50:11;6.30;;;5.80;;
20159;SDS011;50187;50.492;12.134;2022-11-20T03:52:58;6.90;;;6.30;;
20159;SDS011;50187;50.492;12.134;2022-11-20T03:55:43;6.20;;;5.70;;
20159;SDS011;50187;50.492;12.134;2022-11-20T03:58:28;6.30;;;5.70;;
20159;SDS011;50187;50.492;12.134;2022-11-20T04:01:33;6.60;;;6.00;;
20159;SDS011;50187;50.492;12.134;2022-11-20T04:04:19;6.50;;;5.97;;
20159;SDS011;50187;50.492;12.134;2022-11-20T04:07:05;5.87;;;5.37;;
20159;SDS011;50187;50.492;12.134;2022-11-20T04:09:50;7.67;;;6.03;;
20159;SDS011;50187;50.492;12.134;2022-11-20T04:12:35;6.73;;;5.93;;
20159;SDS011;50187;50.492;12.134;2022-11-20T04:15:20;5.47;;;5.03;;
20159;SDS011;50187;50.492;12.134;2022-11-20T04:18:05;7.00;;;6.30;;
20159;SDS011;50187;50.492;12.134;2022-11-20T04:20:50;5.70;;;5.30;;
20159;SDS011;50187;50.492;12.134;2022-11-20T04:23:35;6.03;;;5.53;;
20159;SDS011;50187;50.492;12.134;2022-11-20T04:26:21;6.03;;;5.53;;
20159;SDS011;50187;50.492;12.134;2022-11-20T04:29:10;5.97;;;5.47;;
20159;SDS011;50187;50.492;12.134;2022-11-20T04:31:56;5.90;;;5.40;;
20159;SDS011;50187;50.492;12.134;2022-11-20T04:34:41;5.97;;;5.47;;
20159;SDS011;50187;50.492;12.134;2022-11-20T04:37:26;5.40;;;4.90;;
20159;SDS011;50187;50.492;12.134;2022-11-20T04:40:11;6.37;;;5.87;;
20159;SDS011;50187;50.492;12.134;2022-11-20T04:42:56;6.07;;;5.57;;
20159;SDS011;50187;50.492;12.134;2022-11-20T04:45:41;5.80;;;5.30;;
20159;SDS011;50187;50.492;12.134;2022-11-20T04:48:26;5.70;;;5.20;;
20159;SDS011;50187;50.492;12.134;2022-11-20T04:51:12;5.53;;;5.13;;
20159;SDS011;50187;50.492;12.134;2022-11-20T04:53:57;5.93;;;5.43;;
20159;SDS011;50187;50.492;12.134;2022-11-20T04:56:42;5.70;;;5.20;;
20159;SDS011;50187;50.492;12.134;2022-11-20T04:59:28;5.37;;;4.97;;
20159;SDS011;50187;50.492;12.134;2022-11-20T05:02:14;5.70;;;5.23;;
20159;SDS011;50187;50.492;12.134;2022-11-20T05:04:59;5.17;;;4.77;;
20159;SDS011;50187;50.492;12.134;2022-11-20T05:07:44;6.13;;;5.63;;
20159;SDS011;50187;50.492;12.134;2022-11-20T05:10:29;5.47;;;4.97;;
20159;SDS011;50187;50.492;12.134;2022-11-20T05:13:14;5.27;;;4.77;;
20159;SDS011;50187;50.492;12.134;2022-11-20T05:16:04;5.30;;;4.90;;
20159;SDS011;50187;50.492;12.134;2022-11-20T05:18:51;5.27;;;4.77;;
20159;SDS011;50187;50.492;12.134;2022-11-20T05:21:38;5.33;;;4.90;;
20159;SDS011;50187;50.492;12.134;2022-11-20T05:24:23;5.20;;;4.70;;
20159;SDS011;50187;50.492;12.134;2022-11-20T05:27:09;5.87;;;5.37;;
20159;SDS011;50187;50.492;12.134;2022-11-20T05:29:54;5.27;;;4.87;;
20159;SDS011;50187;50.492;12.134;2022-11-20T05:32:39;5.47;;;4.97;;
20159;SDS011;50187;50.492;12.134;2022-11-20T05:35:24;4.70;;;4.30;;
20159;SDS011;50187;50.492;12.134;2022-11-20T05:38:09;5.13;;;4.67;;
20159;SDS011;50187;50.492;12.134;2022-11-20T05:40:54;5.47;;;5.07;;
20159;SDS011;50187;50.492;12.134;2022-11-20T05:43:40;5.63;;;5.13;;
20159;SDS011;50187;50.492;12.134;2022-11-20T05:46:26;5.00;;;4.60;;
20159;SDS011;50187;50.492;12.134;2022-11-20T05:49:13;4.77;;;4.37;;
20159;SDS011;50187;50.492;12.134;2022-11-20T05:51:58;4.93;;;4.53;;
20159;SDS011;50187;50.492;12.134;2022-11-20T05:54:44;5.13;;;4.73;;
20159;SDS011;50187;50.492;12.134;2022-11-20T05:57:30;5.40;;;4.90;;
20159;SDS011;50187;50.492;12.134;2022-11-20T06:00:16;4.60;;;4.20;;
20159;SDS011;50187;50.492;12.134;2022-11-20T06:03:01;4.97;;;4.53;;
20159;SDS011;50187;50.492;12.134;2022-11-20T06:05:46;4.70;;;4.30;;
20159;SDS011;50187;50.492;12.134;2022-11-20T06:08:32;4.83;;;4.43;;
20159;SDS011;50187;50.492;12.134;2022-11-20T06:11:17;4.77;;;4.37;;
20159;SDS011;50187;50.492;12.134;2022-11-20T06:14:02;4.30;;;4.00;;
20159;SDS011;50187;50.492;12.134;2022-11-20T06:16:48;4.87;;;4.47;;
20159;SDS011;50187;50.492;12.134;2022-11-20T06:19:32;4.37;;;4.00;;
20159;SDS011;50187;50.492;12.134;2022-11-20T06:22:17;4.17;;;3.87;;
20159;SDS011;50187;50.492;12.134;2022-11-20T06:25:02;5.23;;;4.73;;
20159;SDS011;50187;50.492;12.134;2022-11-20T06:27:47;4.87;;;4.47;;
20159;SDS011;50187;50.492;12.134;2022-11-20T06:30:32;4.07;;;3.77;;
20159;SDS011;50187;50.492;12.134;2022-11-20T06:33:17;4.53;;;4.13;;
20159;SDS011;50187;50.492;12.134;2022-11-20T06:36:03;4.70;;;4.30;;
20159;SDS011;50187;50.492;12.134;2022-11-20T06:38:54;4.27;;;3.97;;
20159;SDS011;50187;50.492;12.134;2022-11-20T06:41:40;4.40;;;4.10;;
20159;SDS011;50187;50.492;12.134;2022-11-20T06:44:25;4.90;;;4.40;;
20159;SDS011;50187;50.492;12.134;2022-11-20T06:47:10;4.10;;;3.80;;
20159;SDS011;50187;50.492;12.134;2022-11-20T06:49:55;4.77;;;4.37;;
20159;SDS011;50187;50.492;12.134;2022-11-20T06:52:41;4.20;;;3.90;;
20159;SDS011;50187;50.492;12.134;2022-11-20T06:55:27;3.90;;;3.60;;
20159;SDS011;50187;50.492;12.134;2022-11-20T06:58:13;4.20;;;3.90;;
20159;SDS011;50187;50.492;12.134;2022-11-20T07:00:59;3.73;;;3.37;;
20159;SDS011;50187;50.492;12.134;2022-11-20T07:03:48;4.37;;;4.07;;
20159;SDS011;50187;50.492;12.134;2022-11-20T07:06:38;3.80;;;3.50;;
20159;SDS011;50187;50.492;12.134;2022-11-20T07:09:23;3.87;;;3.60;;
20159;SDS011;50187;50.492;12.134;2022-11-20T07:12:09;3.83;;;3.53;;
20159;SDS011;50187;50.492;12.134;2022-11-20T07:14:54;3.90;;;3.60;;
20159;SDS011;50187;50.492;12.134;2022-11-20T07:17:39;3.83;;;3.50;;
20159;SDS011;50187;50.492;12.134;2022-11-20T07:20:24;4.00;;;3.70;;
20159;SDS011;50187;50.492;12.134;2022-11-20T07:23:09;3.93;;;3.63;;
20159;SDS011;50187;50.492;12.134;2022-11-20T07:25:54;3.73;;;3.43;;
20159;SDS011;50187;50.492;12.134;2022-11-20T07:28:40;4.20;;;3.90;;
20159;SDS011;50187;50.492;12.134;2022-11-20T07:31:29;4.20;;;3.90;;
20159;SDS011;50187;50.492;12.134;2022-11-20T07:34:14;4.00;;;3.70;;
20159;SDS011;50187;50.492;12.134;2022-11-20T07:36:59;4.43;;;4.10;;
20159;SDS011;50187;50.492;12.134;2022-11-20T07:39:49;3.97;;;3.67;;
20159;SDS011;50187;50.492;12.134;2022-11-20T07:42:34;3.80;;;3.50;;
20159;SDS011;50187;50.492;12.134;2022-11-20T07:45:20;4.13;;;3.83;;
20159;SDS011;50187;50.492;12.134;2022-11-20T07:48:07;3.20;;;2.93;;
20159;SDS011;50187;50.492;12.134;2022-11-20T07:50:55;3.70;;;3.40;;
20159;SDS011;50187;50.492;12.134;2022-11-20T07:53:41;4.13;;;3.83;;
20159;SDS011;50187;50.492;12.134;2022-11-20T07:56:26;3.33;;;3.13;;
20159;SDS011;50187;50.492;12.134;2022-11-20T07:59:11;3.80;;;3.50;;
20159;SDS011;50187;50.492;12.134;2022-11-20T08:01:56;3.30;;;3.10;;
20159;SDS011;50187;50.492;12.134;2022-11-20T08:04:41;3.80;;;3.50;;
20159;SDS011;50187;50.492;12.134;2022-11-20T08:07:27;3.40;;;3.10;;
20159;SDS011;50187;50.492;12.134;2022-11-20T08:10:13;3.47;;;3.27;;
20159;SDS011;50187;50.492;12.134;2022-11-20T08:13:00;4.27;;;3.97;;
20159;SDS011;50187;50.492;12.134;2022-11-20T08:16:04;3.37;;;3.17;;
20159;SDS011;50187;50.492;12.134;2022-11-20T08:18:49;3.67;;;3.37;;
20159;SDS011;50187;50.492;12.134;2022-11-20T08:21:35;3.80;;;3.50;;
20159;SDS011;50187;50.492;12.134;2022-11-20T08:24:22;3.33;;;3.13;;
20159;SDS011;50187;50.492;12.134;2022-11-20T08:27:07;3.30;;;3.10;;
20159;SDS011;50187;50.492;12.134;2022-11-20T08:29:52;3.30;;;3.10;;
20159;SDS011;50187;50.492;12.134;2022-11-20T08:32:37;3.80;;;3.50;;
20159;SDS011;50187;50.492;12.134;2022-11-20T08:35:23;3.40;;;3.20;;
20159;SDS011;50187;50.492;12.134;2022-11-20T08:38:08;3.37;;;3.10;;
20159;SDS011;50187;50.492;12.134;2022-11-20T08:41:00;3.83;;;3.53;;
20159;SDS011;50187;50.492;12.134;2022-11-20T08:44:06;3.20;;;3.00;;
20159;SDS011;50187;50.492;12.134;2022-11-20T08:46:52;3.73;;;3.43;;
20159;SDS011;50187;50.492;12.134;2022-11-20T08:49:37;3.50;;;3.20;;
20159;SDS011;50187;50.492;12.134;2022-11-20T08:52:22;3.07;;;2.87;;
20159;SDS011;50187;50.492;12.134;2022-11-20T08:55:07;3.30;;;3.00;;
20159;SDS011;50187;50.492;12.134;2022-11-20T08:57:53;3.37;;;3.17;;
20159;SDS011;50187;50.492;12.134;2022-11-20T09:00:38;3.77;;;3.47;;
20159;SDS011;50187;50.492;12.134;2022-11-20T09:03:23;3.17;;;2.97;;
20159;SDS011;50187;50.492;12.134;2022-11-20T09:06:28;3.77;;;3.47;;
20159;SDS011;50187;50.492;12.134;2022-11-20T09:09:13;3.10;;;2.90;;
20159;SDS011;50187;50.492;12.134;2022-11-20T09:11:58;3.30;;;3.10;;
20159;SDS011;50187;50.492;12.134;2022-11-20T09:14:43;3.17;;;2.97;;
20159;SDS011;50187;50.492;12.134;2022-11-20T09:17:28;3.23;;;3.00;;
20159;SDS011;50187;50.492;12.134;2022-11-20T09:20:14;3.47;;;3.17;;
20159;SDS011;50187;50.492;12.134;2022-11-20T09:22:59;3.33;;;3.03;;
20159;SDS011;50187;50.492;12.134;2022-11-20T09:25:44;3.30;;;3.10;;
20159;SDS011;50187;50.492;12.134;2022-11-20T09:28:29;3.30;;;3.10;;
20159;SDS011;50187;50.492;12.134;2022-11-20T09:31:24;3.27;;;3.03;;
20159;SDS011;50187;50.492;12.134;2022-11-20T09:34:10;3.20;;;3.00;;
20159;SDS011;50187;50.492;12.134;2022-11-20T09:36:56;3.63;;;3.37;;
20159;SDS011;50187;50.492;12.134;2022-11-20T09:39:44;3.00;;;2.80;;
20159;SDS011;50187;50.492;12.134;2022-11-20T09:45:37;2.87;;;2.67;;
20159;SDS011;50187;50.492;12.134;2022-11-20T09:55:02;3.03;;;2.83;;
20159;SDS011;50187;50.492;12.134;2022-11-20T09:57:50;3.20;;;3.00;;
20159;SDS011;50187;50.492;12.134;2022-11-20T10:00:36;2.90;;;2.70;;
20159;SDS011;50187;50.492;12.134;2022-11-20T10:03:27;3.63;;;3.33;;
20159;SDS011;50187;50.492;12.134;2022-11-20T10:06:28;3.03;;;2.83;;
20159;SDS011;50187;50.492;12.134;2022-11-20T10:09:50;3.33;;;3.13;;
20159;SDS011;50187;50.492;12.134;2022-11-20T10:12:53;3.20;;;3.00;;
20159;SDS011;50187;50.492;12.134;2022-11-20T10:22:26;3.33;;;3.07;;
20159;SDS011;50187;50.492;12.134;2022-11-20T10:25:47;3.43;;;3.13;;
20159;SDS011;50187;50.492;12.134;2022-11-20T10:28:46;2.93;;;2.73;;
20159;SDS011;50187;50.492;12.134;2022-11-20T10:31:46;3.17;;;2.93;;
20159;SDS011;50187;50.492;12.134;2022-11-20T10:34:52;3.80;;;3.50;;
20159;SDS011;50187;50.492;12.134;2022-11-20T10:37:48;3.33;;;3.03;;
20159;SDS011;50187;50.492;12.134;2022-11-20T10:40:41;3.37;;;3.17;;
20159;SDS011;50187;50.492;12.134;2022-11-20T10:43:50;3.27;;;3.07;;
20159;SDS011;50187;50.492;12.134;2022-11-20T10:46:47;3.20;;;3.00;;
20159;SDS011;50187;50.492;12.134;2022-11-20T10:49:33;3.30;;;3.10;;
20159;SDS011;50187;50.492;12.134;2022-11-20T10:55:31;3.10;;;2.90;;
20159;SDS011;50187;50.492;12.134;2022-11-20T10:58:20;3.17;;;2.93;;
20159;SDS011;50187;50.492;12.134;2022-11-20T11:01:25;2.90;;;2.70;;
20159;SDS011;50187;50.492;12.134;2022-11-20T11:10:00;3.50;;;3.23;;
20159;SDS011;50187;50.492;12.134;2022-11-20T11:12:45;3.33;;;3.13;;
20159;SDS011;50187;50.492;12.134;2022-11-20T11:15:39;3.20;;;3.00;;
20159;SDS011;50187;50.492;12.134;2022-11-20T11:18:26;3.17;;;2.97;;
20159;SDS011;50187;50.492;12.134;2022-11-20T11:21:25;3.10;;;2.90;;
20159;SDS011;50187;50.492;12.134;2022-11-20T11:24:27;3.50;;;2.90;;
20159;SDS011;50187;50.492;12.134;2022-11-20T11:27:29;3.17;;;2.97;;
20159;SDS011;50187;50.492;12.134;2022-11-20T11:30:15;3.47;;;3.17;;
20159;SDS011;50187;50.492;12.134;2022-11-20T11:33:19;3.50;;;3.20;;
20159;SDS011;50187;50.492;12.134;2022-11-20T11:36:16;3.23;;;3.03;;
20159;SDS011;50187;50.492;12.134;2022-11-20T11:39:05;3.23;;;3.00;;
20159;SDS011;50187;50.492;12.134;2022-11-20T11:41:57;3.77;;;3.47;;
20159;SDS011;50187;50.492;12.134;2022-11-20T11:44:59;3.20;;;3.00;;
20159;SDS011;50187;50.492;12.134;2022-11-20T11:47:51;2.90;;;2.70;;
20159;SDS011;50187;50.492;12.134;2022-11-20T11:50:38;3.00;;;2.80;;
20159;SDS011;50187;50.492;12.134;2022-11-20T11:53:34;3.40;;;3.10;;
20159;SDS011;50187;50.492;12.134;2022-11-20T11:56:36;3.00;;;2.80;;
20159;SDS011;50187;50.492;12.134;2022-11-20T12:03:05;3.07;;;2.83;;
20159;SDS011;50187;50.492;12.134;2022-11-20T12:06:26;3.00;;;2.80;;
20159;SDS011;50187;50.492;12.134;2022-11-20T12:09:39;3.43;;;3.13;;
20159;SDS011;50187;50.492;12.134;2022-11-20T12:12:38;3.53;;;3.30;;
20159;SDS011;50187;50.492;12.134;2022-11-20T12:15:39;3.30;;;3.10;;
20159;SDS011;50187;50.492;12.134;2022-11-20T12:24:55;3.47;;;3.17;;
20159;SDS011;50187;50.492;12.134;2022-11-20T12:32:06;3.43;;;3.13;;
20159;SDS011;50187;50.492;12.134;2022-11-20T12:45:29;3.20;;;3.00;;
20159;SDS011;50187;50.492;12.134;2022-11-20T13:02:30;3.20;;;3.00;;
20159;SDS011;50187;50.492;12.134;2022-11-20T13:06:02;3.63;;;3.33;;
20159;SDS011;50187;50.492;12.134;2022-11-20T13:08:29;3.20;;;3.00;;
20159;SDS011;50187;50.492;12.134;2022-11-20T13:11:21;3.70;;;3.40;;
20159;SDS011;50187;50.492;12.134;2022-11-20T13:14:26;3.27;;;3.07;;
20159;SDS011;50187;50.492;12.134;2022-11-20T13:17:30;3.37;;;3.10;;
20159;SDS011;50187;50.492;12.134;2022-11-20T13:20:20;3.10;;;2.90;;
20159;SDS011;50187;50.492;12.134;2022-11-20T13:23:06;3.00;;;2.80;;
20159;SDS011;50187;50.492;12.134;2022-11-20T13:26:01;2.93;;;2.73;;
20159;SDS011;50187;50.492;12.134;2022-11-20T13:32:06;2.80;;;2.60;;
20159;SDS011;50187;50.492;12.134;2022-11-20T13:34:59;2.73;;;2.53;;
20159;SDS011;50187;50.492;12.134;2022-11-20T13:37:46;3.17;;;2.93;;
20159;SDS011;50187;50.492;12.134;2022-11-20T13:40:32;3.33;;;3.13;;
20159;SDS011;50187;50.492;12.134;2022-11-20T13:43:32;3.10;;;2.90;;
20159;SDS011;50187;50.492;12.134;2022-11-20T13:46:22;3.13;;;2.93;;
20159;SDS011;50187;50.492;12.134;2022-11-20T13:49:10;3.07;;;2.87;;
20159;SDS011;50187;50.492;12.134;2022-11-20T13:52:04;3.10;;;2.90;;
20159;SDS011;50187;50.492;12.134;2022-11-20T14:01:26;2.47;;;2.27;;
20159;SDS011;50187;50.492;12.134;2022-11-20T14:04:18;3.33;;;3.13;;
20159;SDS011;50187;50.492;12.134;2022-11-20T14:07:10;3.10;;;2.90;;
20159;SDS011;50187;50.492;12.134;2022-11-20T14:09:57;2.50;;;2.40;;
20159;SDS011;50187;50.492;12.134;2022-11-20T14:12:42;3.03;;;2.83;;
20159;SDS011;50187;50.492;12.134;2022-11-20T14:15:33;3.40;;;3.20;;
20159;SDS011;50187;50.492;12.134;2022-11-20T14:18:25;2.77;;;2.57;;
20159;SDS011;50187;50.492;12.134;2022-11-20T14:21:11;2.80;;;2.60;;
20159;SDS011;50187;50.492;12.134;2022-11-20T14:24:06;3.10;;;2.80;;
20159;SDS011;50187;50.492;12.134;2022-11-20T14:26:51;2.97;;;2.77;;
20159;SDS011;50187;50.492;12.134;2022-11-20T14:29:37;3.00;;;2.80;;
20159;SDS011;50187;50.492;12.134;2022-11-20T14:32:25;2.53;;;2.33;;
20159;SDS011;50187;50.492;12.134;2022-11-20T14:35:23;3.13;;;2.90;;
20159;SDS011;50187;50.492;12.134;2022-11-20T14:38:15;2.70;;;2.50;;
20159;SDS011;50187;50.492;12.134;2022-11-20T14:41:07;3.00;;;2.80;;
20159;SDS011;50187;50.492;12.134;2022-11-20T14:43:57;2.90;;;2.70;;
20159;SDS011;50187;50.492;12.134;2022-11-20T14:46:44;2.80;;;2.60;;
20159;SDS011;50187;50.492;12.134;2022-11-20T14:49:29;2.90;;;2.70;;
20159;SDS011;50187;50.492;12.134;2022-11-20T14:52:17;2.90;;;2.70;;
20159;SDS011;50187;50.492;12.134;2022-11-20T14:55:07;2.90;;;2.70;;
20159;SDS011;50187;50.492;12.134;2022-11-20T14:57:57;3.57;;;3.27;;
20159;SDS011;50187;50.492;12.134;2022-11-20T15:01:21;3.33;;;3.07;;
20159;SDS011;50187;50.492;12.134;2022-11-20T15:03:59;2.77;;;2.57;;
20159;SDS011;50187;50.492;12.134;2022-11-20T15:06:57;2.60;;;2.40;;
20159;SDS011;50187;50.492;12.134;2022-11-20T15:12:52;2.80;;;2.60;;
20159;SDS011;50187;50.492;12.134;2022-11-20T15:15:48;2.83;;;2.63;;
20159;SDS011;50187;50.492;12.134;2022-11-20T15:22:01;2.77;;;2.57;;
20159;SDS011;50187;50.492;12.134;2022-11-20T15:24:47;2.57;;;2.40;;
20159;SDS011;50187;50.492;12.134;2022-11-20T15:27:32;2.40;;;2.20;;
20159;SDS011;50187;50.492;12.134;2022-11-20T15:30:18;2.50;;;2.30;;
20159;SDS011;50187;50.492;12.134;2022-11-20T15:33:07;2.80;;;2.60;;
20159;SDS011;50187;50.492;12.134;2022-11-20T15:35:53;2.60;;;2.40;;
20159;SDS011;50187;50.492;12.134;2022-11-20T15:38:38;3.27;;;2.97;;
20159;SDS011;50187;50.492;12.134;2022-11-20T15:41:23;2.40;;;2.30;;
20159;SDS011;50187;50.492;12.134;2022-11-20T15:44:08;2.23;;;2.13;;
20159;SDS011;50187;50.492;12.134;2022-11-20T15:46:53;2.80;;;2.60;;
20159;SDS011;50187;50.492;12.134;2022-11-20T15:49:38;3.07;;;2.87;;
20159;SDS011;50187;50.492;12.134;2022-11-20T15:52:23;2.40;;;2.30;;
20159;SDS011;50187;50.492;12.134;2022-11-20T15:55:09;2.30;;;2.20;;
20159;SDS011;50187;50.492;12.134;2022-11-20T15:57:54;2.63;;;2.50;;
20159;SDS011;50187;50.492;12.134;2022-11-20T16:00:39;2.80;;;2.60;;
20159;SDS011;50187;50.492;12.134;2022-11-20T16:03:25;2.50;;;2.40;;
20159;SDS011;50187;50.492;12.134;2022-11-20T16:06:10;2.53;;;2.37;;
20159;SDS011;50187;50.492;12.134;2022-11-20T16:08:56;2.57;;;2.37;;
20159;SDS011;50187;50.492;12.134;2022-11-20T16:11:40;2.80;;;2.60;;
20159;SDS011;50187;50.492;12.134;2022-11-20T16:14:26;2.90;;;2.70;;
20159;SDS011;50187;50.492;12.134;2022-11-20T16:17:30;2.70;;;2.50;;
20159;SDS011;50187;50.492;12.134;2022-11-20T16:20:27;2.27;;;2.17;;
20159;SDS011;50187;50.492;12.134;2022-11-20T16:23:12;2.83;;;2.63;;
20159;SDS011;50187;50.492;12.134;2022-11-20T16:25:57;2.30;;;2.20;;
20159;SDS011;50187;50.492;12.134;2022-11-20T16:28:42;2.77;;;2.57;;
20159;SDS011;50187;50.492;12.134;2022-11-20T16:31:28;2.53;;;2.33;;
20159;SDS011;50187;50.492;12.134;2022-11-20T16:34:15;2.67;;;2.47;;
20159;SDS011;50187;50.492;12.134;2022-11-20T16:37:01;2.10;;;2.00;;
20159;SDS011;50187;50.492;12.134;2022-11-20T16:39:46;2.53;;;2.33;;
20159;SDS011;50187;50.492;12.134;2022-11-20T16:42:34;3.03;;;2.83;;
20159;SDS011;50187;50.492;12.134;2022-11-20T16:45:20;14.30;;;3.13;;
20159;SDS011;50187;50.492;12.134;2022-11-20T16:48:13;2.80;;;2.40;;
20159;SDS011;50187;50.492;12.134;2022-11-20T16:50:59;3.37;;;3.07;;
20159;SDS011;50187;50.492;12.134;2022-11-20T16:53:44;3.50;;;2.93;;
20159;SDS011;50187;50.492;12.134;2022-11-20T16:56:31;3.40;;;3.10;;
20159;SDS011;50187;50.492;12.134;2022-11-20T16:59:18;2.70;;;2.47;;
20159;SDS011;50187;50.492;12.134;2022-11-20T17:02:05;2.37;;;2.17;;
20159;SDS011;50187;50.492;12.134;2022-11-20T17:04:51;2.73;;;2.53;;
20159;SDS011;50187;50.492;12.134;2022-11-20T17:07:36;3.17;;;2.80;;
20159;SDS011;50187;50.492;12.134;2022-11-20T17:10:23;2.60;;;2.40;;
20159;SDS011;50187;50.492;12.134;2022-11-20T17:13:08;2.83;;;2.63;;
20159;SDS011;50187;50.492;12.134;2022-11-20T17:15:53;3.10;;;2.80;;
20159;SDS011;50187;50.492;12.134;2022-11-20T17:18:38;2.80;;;2.60;;
20159;SDS011;50187;50.492;12.134;2022-11-20T17:21:23;3.47;;;2.50;;
20159;SDS011;50187;50.492;12.134;2022-11-20T17:24:11;4.70;;;2.73;;
20159;SDS011;50187;50.492;12.134;2022-11-20T17:26:57;3.37;;;3.13;;
20159;SDS011;50187;50.492;12.134;2022-11-20T17:29:42;2.93;;;2.73;;
20159;SDS011;50187;50.492;12.134;2022-11-20T17:32:29;2.67;;;2.47;;
20159;SDS011;50187;50.492;12.134;2022-11-20T17:35:16;3.70;;;2.80;;
20159;SDS011;50187;50.492;12.134;2022-11-20T17:38:03;3.50;;;3.27;;
20159;SDS011;50187;50.492;12.134;2022-11-20T17:40:50;3.10;;;2.90;;
20159;SDS011;50187;50.492;12.134;2022-11-20T17:43:37;3.57;;;3.27;;
20159;SDS011;50187;50.492;12.134;2022-11-20T17:46:25;3.27;;;2.97;;
20159;SDS011;50187;50.492;12.134;2022-11-20T17:49:13;2.90;;;2.70;;
20159;SDS011;50187;50.492;12.134;2022-11-20T17:52:04;3.07;;;2.77;;
20159;SDS011;50187;50.492;12.134;2022-11-20T17:54:51;3.60;;;3.30;;
20159;SDS011;50187;50.492;12.134;2022-11-20T17:57:41;3.13;;;2.83;;
20159;SDS011;50187;50.492;12.134;2022-11-20T18:00:42;3.13;;;2.93;;